sensor_id;sensor_type;location;lat;lon;timestamp;temperature;humidity
12889;DHT22;56848;49.896;11.424;2023-02-16T05:01:20;-3.20;99.90
12889;DHT22;56848;49.896;11.424;2023-02-16T05:03:47;-3.20;99.90
12889;DHT22;56848;49.896;11.424;2023-02-16T05:06:12;-3.20;99.90
12889;DHT22;56848;49.896;11.424;2023-02-16T05:08:38;-3.20;99.90
12889;DHT22;56848;49.896;11.424;2023-02-16T05:11:03;-3.20;99.90
12889;DHT22;56848;49.896;11.424;2023-02-16T05:13:48;-3.20;99.90
12889;DHT22;56848;49.896;11.424;2023-02-16T05:16:32;-3.10;99.90
12889;DHT22;56848;49.896;11.424;2023-02-16T05:18:58;-3.10;99.90
12889;DHT22;56848;49.896;11.424;2023-02-16T05:21:24;-3.20;99.90
12889;DHT22;56848;49.896;11.424;2023-02-16T05:23:59;-3.40;99.90
12889;DHT22;56848;49.896;11.424;2023-02-16T05:26:25;-3.50;99.90
12889;DHT22;56848;49.896;11.424;2023-02-16T05:28:51;-3.40;99.90
12889;DHT22;56848;49.896;11.424;2023-02-16T05:31:17;-3.40;99.90
12889;DHT22;56848;49.896;11.424;2023-02-16T05:33:42;-3.40;99.90
12889;DHT22;56848;49.896;11.424;2023-02-16T05:36:08;-3.40;99.90
12889;DHT22;56848;49.896;11.424;2023-02-16T05:38:34;-3.40;99.90
12889;DHT22;56848;49.896;11.424;2023-02-16T05:40:59;-3.40;99.90
12889;DHT22;56848;49.896;11.424;2023-02-16T05:43:25;-3.40;99.90
12889;DHT22;56848;49.896;11.424;2023-02-16T05:45:50;-3.30;99.90
12889;DHT22;56848;49.896;11.424;2023-02-16T05:48:16;-3.20;99.90
12889;DHT22;56848;49.896;11.424;2023-02-16T05:50:41;-3.30;99.90
12889;DHT22;56848;49.896;11.424;2023-02-16T05:53:07;-3.20;99.90
12889;DHT22;56848;49.896;11.424;2023-02-16T05:55:33;-3.30;99.90
12889;DHT22;56848;49.896;11.424;2023-02-16T05:57:58;-3.40;99.90
12889;DHT22;56848;49.896;11.424;2023-02-16T06:00:24;-3.40;99.90
12889;DHT22;56848;49.896;11.424;2023-02-16T06:02:50;-3.50;99.90
12889;DHT22;56848;49.896;11.424;2023-02-16T06:05:15;-3.60;99.90
12889;DHT22;56848;49.896;11.424;2023-02-16T06:07:41;-3.70;99.90
12889;DHT22;56848;49.896;11.424;2023-02-16T06:10:07;-3.60;99.90
12889;DHT22;56848;49.896;11.424;2023-02-16T06:12:33;-3.70;99.90
12889;DHT22;56848;49.896;11.424;2023-02-16T06:15:00;-3.70;99.90
12889;DHT22;56848;49.896;11.424;2023-02-16T06:17:25;-3.60;99.90
12889;DHT22;56848;49.896;11.424;2023-02-16T06:19:52;-3.60;99.90
12889;DHT22;56848;49.896;11.424;2023-02-16T06:22:18;-3.70;99.90
12889;DHT22;56848;49.896;11.424;2023-02-16T06:24:44;-3.70;99.90
12889;DHT22;56848;49.896;11.424;2023-02-16T06:27:09;-3.70;99.90
12889;DHT22;56848;49.896;11.424;2023-02-16T06:29:35;-3.70;99.90
12889;DHT22;56848;49.896;11.424;2023-02-16T06:32:00;-3.80;99.90
12889;DHT22;56848;49.896;11.424;2023-02-16T06:34:26;-3.80;99.90
12889;DHT22;56848;49.896;11.424;2023-02-16T06:36:51;-3.80;99.90
12889;DHT22;56848;49.896;11.424;2023-02-16T06:39:17;-3.80;99.90
12889;DHT22;56848;49.896;11.424;2023-02-16T06:41:43;-3.80;99.90
12889;DHT22;56848;49.896;11.424;2023-02-16T06:44:11;-3.80;99.90
12889;DHT22;56848;49.896;11.424;2023-02-16T06:46:38;-3.90;99.90
12889;DHT22;56848;49.896;11.424;2023-02-16T06:49:04;-3.90;99.90
12889;DHT22;56848;49.896;11.424;2023-02-16T06:51:30;-3.80;99.90
12889;DHT22;56848;49.896;11.424;2023-02-16T06:53:55;-3.90;99.90
12889;DHT22;56848;49.896;11.424;2023-02-16T06:56:22;-3.80;99.90
12889;DHT22;56848;49.896;11.424;2023-02-16T06:58:48;-3.80;99.90
12889;DHT22;56848;49.896;11.424;2023-02-16T07:01:14;-3.80;99.90
12889;DHT22;56848;49.896;11.424;2023-02-16T07:03:39;-3.90;99.90
12889;DHT22;56848;49.896;11.424;2023-02-16T07:06:05;-3.90;99.90
12889;DHT22;56848;49.896;11.424;2023-02-16T07:08:31;-3.80;99.90
12889;DHT22;56848;49.896;11.424;2023-02-16T07:10:56;-3.70;99.90
12889;DHT22;56848;49.896;11.424;2023-02-16T07:13:22;-3.80;99.90
12889;DHT22;56848;49.896;11.424;2023-02-16T07:15:47;-3.80;99.90
12889;DHT22;56848;49.896;11.424;2023-02-16T07:18:13;-3.80;99.90
12889;DHT22;56848;49.896;11.424;2023-02-16T07:20:39;-3.90;99.90
12889;DHT22;56848;49.896;11.424;2023-02-16T07:23:04;-3.80;99.90
12889;DHT22;56848;49.896;11.424;2023-02-16T07:25:31;-3.80;99.90
12889;DHT22;56848;49.896;11.424;2023-02-16T07:27:56;-3.70;99.90
12889;DHT22;56848;49.896;11.424;2023-02-16T07:30:22;-3.60;99.90
12889;DHT22;56848;49.896;11.424;2023-02-16T07:32:47;-3.50;99.90
12889;DHT22;56848;49.896;11.424;2023-02-16T07:35:13;-3.50;99.90
12889;DHT22;56848;49.896;11.424;2023-02-16T07:37:38;-3.30;99.90
12889;DHT22;56848;49.896;11.424;2023-02-16T07:40:05;-3.20;99.90
12889;DHT22;56848;49.896;11.424;2023-02-16T07:42:32;-3.10;99.90
12889;DHT22;56848;49.896;11.424;2023-02-16T07:44:58;-3.00;99.90
12889;DHT22;56848;49.896;11.424;2023-02-16T07:47:24;-2.80;99.90
12889;DHT22;56848;49.896;11.424;2023-02-16T07:49:49;-2.70;99.90
12889;DHT22;56848;49.896;11.424;2023-02-16T07:52:15;-2.50;99.90
12889;DHT22;56848;49.896;11.424;2023-02-16T07:54:40;-2.50;99.90
12889;DHT22;56848;49.896;11.424;2023-02-16T07:57:06;-2.40;99.90
12889;DHT22;56848;49.896;11.424;2023-02-16T07:59:32;-2.30;99.90
12889;DHT22;56848;49.896;11.424;2023-02-16T08:01:57;-2.20;99.90
12889;DHT22;56848;49.896;11.424;2023-02-16T08:04:23;-2.10;99.90
12889;DHT22;56848;49.896;11.424;2023-02-16T08:06:49;-2.10;99.90
12889;DHT22;56848;49.896;11.424;2023-02-16T08:09:15;-2.10;99.90
12889;DHT22;56848;49.896;11.424;2023-02-16T08:11:41;-2.10;99.90
12889;DHT22;56848;49.896;11.424;2023-02-16T08:14:07;-2.00;99.90
12889;DHT22;56848;49.896;11.424;2023-02-16T08:16:33;-2.00;99.90
12889;DHT22;56848;49.896;11.424;2023-02-16T08:19:00;-1.90;99.90
12889;DHT22;56848;49.896;11.424;2023-02-16T08:21:30;-1.60;99.90
12889;DHT22;56848;49.896;11.424;2023-02-16T08:24:00;-1.50;99.90
12889;DHT22;56848;49.896;11.424;2023-02-16T08:26:29;-1.50;99.90
12889;DHT22;56848;49.896;11.424;2023-02-16T08:28:57;-1.50;99.90
12889;DHT22;56848;49.896;11.424;2023-02-16T08:31:26;-1.40;99.90
12889;DHT22;56848;49.896;11.424;2023-02-16T08:33:55;-1.30;99.90
12889;DHT22;56848;49.896;11.424;2023-02-16T08:36:23;-1.20;99.90
12889;DHT22;56848;49.896;11.424;2023-02-16T08:38:50;-1.20;99.90
12889;DHT22;56848;49.896;11.424;2023-02-16T08:41:21;-1.10;99.90
12889;DHT22;56848;49.896;11.424;2023-02-16T08:43:47;-1.20;99.90
12889;DHT22;56848;49.896;11.424;2023-02-16T08:46:14;-1.10;99.90
12889;DHT22;56848;49.896;11.424;2023-02-16T08:48:40;-1.00;99.90
12889;DHT22;56848;49.896;11.424;2023-02-16T08:51:06;-0.90;99.90
12889;DHT22;56848;49.896;11.424;2023-02-16T08:53:33;-0.80;99.90
12889;DHT22;56848;49.896;11.424;2023-02-16T08:56:00;-0.90;99.90
12889;DHT22;56848;49.896;11.424;2023-02-16T08:58:30;-0.80;99.90
12889;DHT22;56848;49.896;11.424;2023-02-16T09:00:56;-0.80;99.90
12889;DHT22;56848;49.896;11.424;2023-02-16T09:03:21;-0.80;99.90
12889;DHT22;56848;49.896;11.424;2023-02-16T09:05:49;-0.80;99.90
12889;DHT22;56848;49.896;11.424;2023-02-16T09:08:15;-0.90;99.90
12889;DHT22;56848;49.896;11.424;2023-02-16T09:10:42;-0.80;99.90
12889;DHT22;56848;49.896;11.424;2023-02-16T09:13:09;-0.70;99.90
12889;DHT22;56848;49.896;11.424;2023-02-16T09:15:38;-0.60;99.90
12889;DHT22;56848;49.896;11.424;2023-02-16T09:18:04;-0.50;99.90
12889;DHT22;56848;49.896;11.424;2023-02-16T09:20:29;-0.50;99.90
12889;DHT22;56848;49.896;11.424;2023-02-16T09:22:55;-0.40;99.90
12889;DHT22;56848;49.896;11.424;2023-02-16T09:25:22;-0.30;99.90
12889;DHT22;56848;49.896;11.424;2023-02-16T09:27:49;-0.20;99.90
12889;DHT22;56848;49.896;11.424;2023-02-16T09:30:15;-0.10;99.90
12889;DHT22;56848;49.896;11.424;2023-02-16T09:32:41;0.00;99.90
12889;DHT22;56848;49.896;11.424;2023-02-16T09:35:07;0.10;99.90
12889;DHT22;56848;49.896;11.424;2023-02-16T09:37:32;0.20;99.90
12889;DHT22;56848;49.896;11.424;2023-02-16T09:39:58;0.30;99.90
12889;DHT22;56848;49.896;11.424;2023-02-16T09:42:33;0.50;99.90
12889;DHT22;56848;49.896;11.424;2023-02-16T09:45:10;0.60;99.90
12889;DHT22;56848;49.896;11.424;2023-02-16T09:47:41;0.70;99.90
12889;DHT22;56848;49.896;11.424;2023-02-16T09:50:25;0.90;99.90
12889;DHT22;56848;49.896;11.424;2023-02-16T09:53:18;0.80;99.90
12889;DHT22;56848;49.896;11.424;2023-02-16T09:55:53;1.10;99.90
12889;DHT22;56848;49.896;11.424;2023-02-16T09:58:31;1.30;99.90
12889;DHT22;56848;49.896;11.424;2023-02-16T10:04:04;1.70;99.90
12889;DHT22;56848;49.896;11.424;2023-02-16T10:09:15;1.90;99.90
12889;DHT22;56848;49.896;11.424;2023-02-16T10:11:56;2.30;99.90
12889;DHT22;56848;49.896;11.424;2023-02-16T10:14:28;2.30;99.90
12889;DHT22;56848;49.896;11.424;2023-02-16T10:19:52;2.70;99.90
12889;DHT22;56848;49.896;11.424;2023-02-16T10:22:34;2.70;99.90
12889;DHT22;56848;49.896;11.424;2023-02-16T10:25:16;2.70;99.90
12889;DHT22;56848;49.896;11.424;2023-02-16T10:27:46;3.10;99.90
12889;DHT22;56848;49.896;11.424;2023-02-16T10:30:20;3.40;99.90
12889;DHT22;56848;49.896;11.424;2023-02-16T10:32:58;3.70;99.90
12889;DHT22;56848;49.896;11.424;2023-02-16T10:38:22;3.70;99.90
12889;DHT22;56848;49.896;11.424;2023-02-16T10:43:36;3.90;99.90
12889;DHT22;56848;49.896;11.424;2023-02-16T10:46:04;4.00;99.90
12889;DHT22;56848;49.896;11.424;2023-02-16T10:48:31;4.20;99.90
12889;DHT22;56848;49.896;11.424;2023-02-16T10:51:24;4.40;99.90
12889;DHT22;56848;49.896;11.424;2023-02-16T10:54:41;4.20;99.90
12889;DHT22;56848;49.896;11.424;2023-02-16T10:57:04;4.40;99.90
12889;DHT22;56848;49.896;11.424;2023-02-16T10:59:33;4.50;99.90
12889;DHT22;56848;49.896;11.424;2023-02-16T11:02:24;4.50;99.90
12889;DHT22;56848;49.896;11.424;2023-02-16T11:04:50;4.60;99.90
12889;DHT22;56848;49.896;11.424;2023-02-16T11:07:24;4.70;99.90
12889;DHT22;56848;49.896;11.424;2023-02-16T11:09:53;4.50;99.90
12889;DHT22;56848;49.896;11.424;2023-02-16T11:12:31;4.80;99.90
12889;DHT22;56848;49.896;11.424;2023-02-16T11:18:10;5.10;99.90
12889;DHT22;56848;49.896;11.424;2023-02-16T11:20:53;5.30;99.90
12889;DHT22;56848;49.896;11.424;2023-02-16T11:26:23;5.50;99.90
12889;DHT22;56848;49.896;11.424;2023-02-16T11:28:49;5.60;99.90
12889;DHT22;56848;49.896;11.424;2023-02-16T11:31:36;5.50;99.90
12889;DHT22;56848;49.896;11.424;2023-02-16T11:34:14;5.50;99.90
12889;DHT22;56848;49.896;11.424;2023-02-16T11:36:46;5.80;99.90
12889;DHT22;56848;49.896;11.424;2023-02-16T11:41:43;6.10;99.90
12889;DHT22;56848;49.896;11.424;2023-02-16T11:44:32;6.50;99.90
12889;DHT22;56848;49.896;11.424;2023-02-16T11:47:01;6.30;99.90
12889;DHT22;56848;49.896;11.424;2023-02-16T11:49:37;6.40;99.90
12889;DHT22;56848;49.896;11.424;2023-02-16T11:54:53;6.50;99.90
12889;DHT22;56848;49.896;11.424;2023-02-16T11:57:30;6.50;99.90
12889;DHT22;56848;49.896;11.424;2023-02-16T11:59:57;6.70;99.90
12889;DHT22;56848;49.896;11.424;2023-02-16T12:16:05;6.90;99.90
12889;DHT22;56848;49.896;11.424;2023-02-16T12:18:41;6.80;99.90
12889;DHT22;56848;49.896;11.424;2023-02-16T12:21:23;6.90;99.90
12889;DHT22;56848;49.896;11.424;2023-02-16T12:24:03;6.80;99.90
12889;DHT22;56848;49.896;11.424;2023-02-16T12:29:36;7.10;99.90
12889;DHT22;56848;49.896;11.424;2023-02-16T12:32:29;7.10;99.90
12889;DHT22;56848;49.896;11.424;2023-02-16T12:38:08;7.20;99.90
12889;DHT22;56848;49.896;11.424;2023-02-16T12:43:40;7.40;99.90
12889;DHT22;56848;49.896;11.424;2023-02-16T12:46:27;7.20;99.90
12889;DHT22;56848;49.896;11.424;2023-02-16T12:49:22;7.50;99.90
12889;DHT22;56848;49.896;11.424;2023-02-16T12:51:57;7.70;99.90
12889;DHT22;56848;49.896;11.424;2023-02-16T12:54:35;7.60;99.90
12889;DHT22;56848;49.896;11.424;2023-02-16T12:57:07;7.20;99.90
12889;DHT22;56848;49.896;11.424;2023-02-16T12:59:47;7.30;99.90
12889;DHT22;56848;49.896;11.424;2023-02-16T13:02:36;7.50;99.90
12889;DHT22;56848;49.896;11.424;2023-02-16T13:05:17;7.50;99.90
12889;DHT22;56848;49.896;11.424;2023-02-16T13:07:46;7.90;99.90
12889;DHT22;56848;49.896;11.424;2023-02-16T13:10:35;7.70;99.90
12889;DHT22;56848;49.896;11.424;2023-02-16T13:13:14;8.20;99.90
12889;DHT22;56848;49.896;11.424;2023-02-16T13:18:21;7.90;99.90
12889;DHT22;56848;49.896;11.424;2023-02-16T13:20:58;8.30;99.90
12889;DHT22;56848;49.896;11.424;2023-02-16T13:29:20;8.00;99.90
12889;DHT22;56848;49.896;11.424;2023-02-16T13:34:28;8.10;99.90
12889;DHT22;56848;49.896;11.424;2023-02-16T13:37:28;7.80;99.90
12889;DHT22;56848;49.896;11.424;2023-02-16T13:40:21;8.00;99.90
12889;DHT22;56848;49.896;11.424;2023-02-16T13:43:01;8.00;99.90
12889;DHT22;56848;49.896;11.424;2023-02-16T13:45:35;8.00;99.90
12889;DHT22;56848;49.896;11.424;2023-02-16T13:50:46;8.00;99.90
12889;DHT22;56848;49.896;11.424;2023-02-16T13:53:20;8.20;99.90
12889;DHT22;56848;49.896;11.424;2023-02-16T13:55:47;8.30;99.90
12889;DHT22;56848;49.896;11.424;2023-02-16T14:00:47;8.10;99.90
12889;DHT22;56848;49.896;11.424;2023-02-16T14:05:46;8.30;99.90
12889;DHT22;56848;49.896;11.424;2023-02-16T14:08:19;8.20;99.90
12889;DHT22;56848;49.896;11.424;2023-02-16T14:13:26;8.20;99.90
12889;DHT22;56848;49.896;11.424;2023-02-16T14:15:55;8.20;99.90
12889;DHT22;56848;49.896;11.424;2023-02-16T14:18:31;8.20;99.90
12889;DHT22;56848;49.896;11.424;2023-02-16T14:21:14;8.30;99.90
12889;DHT22;56848;49.896;11.424;2023-02-16T14:23:41;8.20;99.90
12889;DHT22;56848;49.896;11.424;2023-02-16T14:26:08;8.10;99.90
12889;DHT22;56848;49.896;11.424;2023-02-16T14:31:25;8.00;99.90
12889;DHT22;56848;49.896;11.424;2023-02-16T14:34:04;7.90;99.90
12889;DHT22;56848;49.896;11.424;2023-02-16T14:36:31;8.10;99.90
12889;DHT22;56848;49.896;11.424;2023-02-16T14:38:58;8.20;99.90
12889;DHT22;56848;49.896;11.424;2023-02-16T14:41:31;8.50;99.90
12889;DHT22;56848;49.896;11.424;2023-02-16T15:01:04;8.30;99.90
12889;DHT22;56848;49.896;11.424;2023-02-16T15:06:27;7.80;99.90
12889;DHT22;56848;49.896;11.424;2023-02-16T15:08:57;7.60;99.90
12889;DHT22;56848;49.896;11.424;2023-02-16T15:11:29;7.60;99.90
12889;DHT22;56848;49.896;11.424;2023-02-16T15:14:04;7.50;99.90
12889;DHT22;56848;49.896;11.424;2023-02-16T15:16:32;7.60;99.90
12889;DHT22;56848;49.896;11.424;2023-02-16T15:19:01;7.60;99.90
12889;DHT22;56848;49.896;11.424;2023-02-16T15:21:27;7.60;99.90
12889;DHT22;56848;49.896;11.424;2023-02-16T15:23:58;7.60;99.90
12889;DHT22;56848;49.896;11.424;2023-02-16T15:26:29;7.60;99.90
12889;DHT22;56848;49.896;11.424;2023-02-16T15:28:58;7.50;99.90
12889;DHT22;56848;49.896;11.424;2023-02-16T15:31:30;7.50;99.90
12889;DHT22;56848;49.896;11.424;2023-02-16T15:36:31;7.50;99.90
12889;DHT22;56848;49.896;11.424;2023-02-16T15:39:01;7.40;99.90
12889;DHT22;56848;49.896;11.424;2023-02-16T15:41:36;7.30;99.90
12889;DHT22;56848;49.896;11.424;2023-02-16T15:44:04;7.30;99.90
12889;DHT22;56848;49.896;11.424;2023-02-16T15:48:56;7.20;99.90
12889;DHT22;56848;49.896;11.424;2023-02-16T15:51:31;7.10;99.90
12889;DHT22;56848;49.896;11.424;2023-02-16T15:54:00;6.90;99.90
12889;DHT22;56848;49.896;11.424;2023-02-16T15:56:43;6.60;99.90
12889;DHT22;56848;49.896;11.424;2023-02-16T15:59:29;6.50;99.90
12889;DHT22;56848;49.896;11.424;2023-02-16T16:02:20;6.40;99.90
12889;DHT22;56848;49.896;11.424;2023-02-16T16:05:05;6.40;99.90
12889;DHT22;56848;49.896;11.424;2023-02-16T16:07:37;6.30;99.90
12889;DHT22;56848;49.896;11.424;2023-02-16T16:10:31;6.30;99.90
12889;DHT22;56848;49.896;11.424;2023-02-16T16:13:05;6.10;99.90
12889;DHT22;56848;49.896;11.424;2023-02-16T16:15:37;5.90;99.90
12889;DHT22;56848;49.896;11.424;2023-02-16T16:18:04;5.50;99.90
12889;DHT22;56848;49.896;11.424;2023-02-16T16:20:40;5.50;99.90
12889;DHT22;56848;49.896;11.424;2023-02-16T16:25:43;5.00;99.90
12889;DHT22;56848;49.896;11.424;2023-02-16T16:31:12;4.70;99.90
12889;DHT22;56848;49.896;11.424;2023-02-16T16:33:56;4.80;99.90
12889;DHT22;56848;49.896;11.424;2023-02-16T16:42:05;4.50;99.90
12889;DHT22;56848;49.896;11.424;2023-02-16T16:44:34;4.50;99.90
12889;DHT22;56848;49.896;11.424;2023-02-16T16:50:52;4.50;99.90
12889;DHT22;56848;49.896;11.424;2023-02-16T16:52:48;4.40;99.90
12889;DHT22;56848;49.896;11.424;2023-02-16T16:57:52;4.20;99.90
12889;DHT22;56848;49.896;11.424;2023-02-16T17:00:19;4.30;99.90
12889;DHT22;56848;49.896;11.424;2023-02-16T17:02:45;4.20;99.90
12889;DHT22;56848;49.896;11.424;2023-02-16T17:05:11;4.20;99.90
12889;DHT22;56848;49.896;11.424;2023-02-16T17:07:37;4.00;99.90
12889;DHT22;56848;49.896;11.424;2023-02-16T17:10:03;4.10;99.90
12889;DHT22;56848;49.896;11.424;2023-02-16T17:12:29;4.20;99.90
12889;DHT22;56848;49.896;11.424;2023-02-16T17:14:55;4.10;99.90
12889;DHT22;56848;49.896;11.424;2023-02-16T17:17:21;4.00;99.90
12889;DHT22;56848;49.896;11.424;2023-02-16T17:19:46;4.00;99.90
12889;DHT22;56848;49.896;11.424;2023-02-16T17:22:14;3.90;99.90
12889;DHT22;56848;49.896;11.424;2023-02-16T17:24:40;3.90;99.90
12889;DHT22;56848;49.896;11.424;2023-02-16T17:27:06;3.70;99.90
12889;DHT22;56848;49.896;11.424;2023-02-16T17:29:31;3.40;99.90
12889;DHT22;56848;49.896;11.424;2023-02-16T17:31:57;3.50;99.90
12889;DHT22;56848;49.896;11.424;2023-02-16T17:34:23;3.60;99.90
12889;DHT22;56848;49.896;11.424;2023-02-16T17:36:59;3.80;99.90
12889;DHT22;56848;49.896;11.424;2023-02-16T17:39:27;4.20;99.90
12889;DHT22;56848;49.896;11.424;2023-02-16T17:41:53;4.60;99.90
12889;DHT22;56848;49.896;11.424;2023-02-16T17:44:19;4.70;99.90
12889;DHT22;56848;49.896;11.424;2023-02-16T17:46:45;5.00;99.90
12889;DHT22;56848;49.896;11.424;2023-02-16T17:49:11;5.20;99.90
12889;DHT22;56848;49.896;11.424;2023-02-16T17:51:37;5.20;99.90
12889;DHT22;56848;49.896;11.424;2023-02-16T17:54:04;5.30;99.90
12889;DHT22;56848;49.896;11.424;2023-02-16T17:56:31;5.50;99.90
12889;DHT22;56848;49.896;11.424;2023-02-16T17:58:57;5.60;99.90
12889;DHT22;56848;49.896;11.424;2023-02-16T18:01:23;5.70;99.90
12889;DHT22;56848;49.896;11.424;2023-02-16T18:03:49;5.70;99.90
12889;DHT22;56848;49.896;11.424;2023-02-16T18:06:19;5.60;99.90
12889;DHT22;56848;49.896;11.424;2023-02-16T18:08:45;5.40;99.90
12889;DHT22;56848;49.896;11.424;2023-02-16T18:11:11;5.30;99.90
12889;DHT22;56848;49.896;11.424;2023-02-16T18:13:37;5.40;99.90
12889;DHT22;56848;49.896;11.424;2023-02-16T18:16:03;5.50;99.90
12889;DHT22;56848;49.896;11.424;2023-02-16T18:18:34;5.60;99.90
12889;DHT22;56848;49.896;11.424;2023-02-16T18:21:01;5.70;99.90
12889;DHT22;56848;49.896;11.424;2023-02-16T18:23:27;5.60;99.90
12889;DHT22;56848;49.896;11.424;2023-02-16T18:25:53;5.40;99.90
12889;DHT22;56848;49.896;11.424;2023-02-16T18:28:24;5.50;99.90
12889;DHT22;56848;49.896;11.424;2023-02-16T18:30:49;5.10;99.90
12889;DHT22;56848;49.896;11.424;2023-02-16T18:33:16;4.90;99.90
12889;DHT22;56848;49.896;11.424;2023-02-16T18:35:42;5.20;99.90
12889;DHT22;56848;49.896;11.424;2023-02-16T18:38:08;5.40;99.90
12889;DHT22;56848;49.896;11.424;2023-02-16T18:40:33;5.50;99.90
12889;DHT22;56848;49.896;11.424;2023-02-16T18:42:59;5.60;99.90
12889;DHT22;56848;49.896;11.424;2023-02-16T18:45:25;5.90;99.90
12889;DHT22;56848;49.896;11.424;2023-02-16T18:47:50;5.90;99.90
12889;DHT22;56848;49.896;11.424;2023-02-16T18:50:16;6.20;99.90
12889;DHT22;56848;49.896;11.424;2023-02-16T18:52:42;6.20;99.90
12889;DHT22;56848;49.896;11.424;2023-02-16T18:55:09;6.20;99.90
12889;DHT22;56848;49.896;11.424;2023-02-16T18:57:35;6.40;99.90
12889;DHT22;56848;49.896;11.424;2023-02-16T19:00:03;6.10;99.90
12889;DHT22;56848;49.896;11.424;2023-02-16T19:02:29;5.50;99.90
12889;DHT22;56848;49.896;11.424;2023-02-16T19:04:54;5.10;99.90
12889;DHT22;56848;49.896;11.424;2023-02-16T19:07:20;5.00;99.90
12889;DHT22;56848;49.896;11.424;2023-02-16T19:09:45;5.10;99.90
12889;DHT22;56848;49.896;11.424;2023-02-16T19:12:11;5.40;99.90
12889;DHT22;56848;49.896;11.424;2023-02-16T19:14:36;5.60;99.90
12889;DHT22;56848;49.896;11.424;2023-02-16T19:17:02;5.70;99.90
12889;DHT22;56848;49.896;11.424;2023-02-16T19:19:28;5.70;99.90
12889;DHT22;56848;49.896;11.424;2023-02-16T19:21:53;5.60;99.90
12889;DHT22;56848;49.896;11.424;2023-02-16T19:24:19;5.60;99.90
12889;DHT22;56848;49.896;11.424;2023-02-16T19:26:45;5.50;99.90
12889;DHT22;56848;49.896;11.424;2023-02-16T19:29:10;5.70;99.90
12889;DHT22;56848;49.896;11.424;2023-02-16T19:31:37;5.80;99.90
12889;DHT22;56848;49.896;11.424;2023-02-16T19:34:03;5.90;99.90
12889;DHT22;56848;49.896;11.424;2023-02-16T19:36:29;6.00;99.90
12889;DHT22;56848;49.896;11.424;2023-02-16T19:38:56;6.10;99.90
12889;DHT22;56848;49.896;11.424;2023-02-16T19:41:31;6.10;99.90
12889;DHT22;56848;49.896;11.424;2023-02-16T19:43:57;6.10;99.90
12889;DHT22;56848;49.896;11.424;2023-02-16T19:46:23;6.20;99.90
12889;DHT22;56848;49.896;11.424;2023-02-16T19:48:49;6.20;99.90
12889;DHT22;56848;49.896;11.424;2023-02-16T19:51:14;6.10;99.90
12889;DHT22;56848;49.896;11.424;2023-02-16T19:53:41;6.10;99.90
12889;DHT22;56848;49.896;11.424;2023-02-16T19:56:10;6.10;99.90
12889;DHT22;56848;49.896;11.424;2023-02-16T19:58:36;6.10;99.90
12889;DHT22;56848;49.896;11.424;2023-02-16T20:01:12;6.10;99.90
12889;DHT22;56848;49.896;11.424;2023-02-16T20:03:38;5.60;99.90
12889;DHT22;56848;49.896;11.424;2023-02-16T20:06:26;5.20;99.90
12889;DHT22;56848;49.896;11.424;2023-02-16T20:08:53;5.20;99.90
12889;DHT22;56848;49.896;11.424;2023-02-16T20:11:21;5.30;99.90
12889;DHT22;56848;49.896;11.424;2023-02-16T20:13:47;5.50;99.90
12889;DHT22;56848;49.896;11.424;2023-02-16T20:16:13;5.60;99.90
12889;DHT22;56848;49.896;11.424;2023-02-16T20:18:39;5.60;99.90
12889;DHT22;56848;49.896;11.424;2023-02-16T20:21:14;5.30;99.90
12889;DHT22;56848;49.896;11.424;2023-02-16T20:23:41;5.20;99.90
12889;DHT22;56848;49.896;11.424;2023-02-16T20:26:21;5.30;99.90
12889;DHT22;56848;49.896;11.424;2023-02-16T20:28:47;5.60;99.90
12889;DHT22;56848;49.896;11.424;2023-02-16T20:31:16;5.80;99.90
12889;DHT22;56848;49.896;11.424;2023-02-16T20:33:43;6.00;99.90
12889;DHT22;56848;49.896;11.424;2023-02-16T20:36:09;6.00;99.90
12889;DHT22;56848;49.896;11.424;2023-02-16T20:38:35;6.00;99.90
12889;DHT22;56848;49.896;11.424;2023-02-16T20:41:02;6.20;99.90
12889;DHT22;56848;49.896;11.424;2023-02-16T20:43:27;6.20;99.90
12889;DHT22;56848;49.896;11.424;2023-02-16T20:45:55;6.30;99.90
12889;DHT22;56848;49.896;11.424;2023-02-16T20:48:20;6.30;99.90
12889;DHT22;56848;49.896;11.424;2023-02-16T20:50:55;6.30;99.90
12889;DHT22;56848;49.896;11.424;2023-02-16T20:53:22;6.30;99.90
12889;DHT22;56848;49.896;11.424;2023-02-16T20:55:48;6.30;99.90
12889;DHT22;56848;49.896;11.424;2023-02-16T20:58:14;5.80;99.90
12889;DHT22;56848;49.896;11.424;2023-02-16T21:00:41;5.50;99.90
12889;DHT22;56848;49.896;11.424;2023-02-16T21:03:07;5.60;99.90
12889;DHT22;56848;49.896;11.424;2023-02-16T21:05:32;5.40;99.90
12889;DHT22;56848;49.896;11.424;2023-02-16T21:07:58;5.50;99.90
12889;DHT22;56848;49.896;11.424;2023-02-16T21:10:23;5.80;99.90
12889;DHT22;56848;49.896;11.424;2023-02-16T21:12:49;6.00;99.90
12889;DHT22;56848;49.896;11.424;2023-02-16T21:15:14;6.20;99.90
12889;DHT22;56848;49.896;11.424;2023-02-16T21:17:40;6.10;99.90
12889;DHT22;56848;49.896;11.424;2023-02-16T21:20:06;5.70;99.90
12889;DHT22;56848;49.896;11.424;2023-02-16T21:22:32;5.80;99.90
12889;DHT22;56848;49.896;11.424;2023-02-16T21:24:58;5.60;99.90
12889;DHT22;56848;49.896;11.424;2023-02-16T21:27:23;5.80;99.90
12889;DHT22;56848;49.896;11.424;2023-02-16T21:29:49;5.50;99.90
12889;DHT22;56848;49.896;11.424;2023-02-16T21:32:14;5.20;99.90
